Time,TemperatureF,DewpointF,PressureIn,WindDirection,WindDirectionDegrees,WindSpeedMPH,WindSpeedGustMPH,Humidity,HourlyPrecipIn,Conditions,Clouds,dailyrainin,SoftwareType,DateUTC
2013-03-11 00:08:00,66.7,59.0,30.11,ENE,63,6.0,10.0,77,0.00,,,0.00,weatherlink.com 1.10,2013-03-11 04:08:00,
2013-03-11 00:23:00,66.5,59.0,30.11,ENE,73,2.0,11.0,78,0.00,,,0.00,weatherlink.com 1.10,2013-03-11 04:23:00,
2013-03-11 00:38:00,66.1,59.0,30.10,ENE,66,6.0,9.0,78,0.00,,,0.00,weatherlink.com 1.10,2013-03-11 04:38:00,
2013-03-11 00:53:00,65.7,59.0,30.10,ENE,63,7.0,9.0,79,0.00,,,0.00,weatherlink.com 1.10,2013-03-11 04:53:00,
2013-03-11 01:08:00,65.2,59.0,30.09,ENE,74,4.0,8.0,80,0.00,,,0.00,weatherlink.com 1.10,2013-03-11 05:08:00,
2013-03-11 01:23:00,64.8,59.0,30.09,East,87,3.0,8.0,81,0.00,,,0.00,weatherlink.com 1.10,2013-03-11 05:23:00,
2013-03-11 01:38:00,64.5,59.0,30.09,East,81,1.0,6.0,81,0.00,,,0.00,weatherlink.com 1.10,2013-03-11 05:38:00,
2013-03-11 01:53:00,64.0,58.0,30.09,ENE,74,2.0,6.0,82,0.00,,,0.00,weatherlink.com 1.10,2013-03-11 05:53:00,
2013-03-11 02:08:00,63.5,58.0,30.09,ENE,74,4.0,5.0,83,0.00,,,0.00,weatherlink.com 1.10,2013-03-11 06:08:00,
2013-03-11 02:23:00,63.1,58.0,30.08,ENE,67,6.0,8.0,84,0.00,,,0.00,weatherlink.com 1.10,2013-03-11 06:23:00,
2013-03-11 02:38:00,63.1,58.0,30.08,ENE,66,3.0,7.0,84,0.00,,,0.00,weatherlink.com 1.10,2013-03-11 06:38:00,
2013-03-11 02:54:00,62.7,58.0,30.07,ENE,62,5.0,8.0,85,0.00,,,0.00,weatherlink.com 1.10,2013-03-11 06:54:00,
2013-03-11 03:09:00,62.4,58.0,30.06,ENE,62,4.0,7.0,85,0.00,,,0.00,weatherlink.com 1.10,2013-03-11 07:09:00,
2013-03-11 03:24:00,62.2,58.0,30.05,ENE,60,5.0,7.0,86,0.00,,,0.00,weatherlink.com 1.10,2013-03-11 07:24:00,
2013-03-11 03:39:00,62.0,58.0,30.05,ENE,60,3.0,7.0,86,0.00,,,0.00,weatherlink.com 1.10,2013-03-11 07:39:00,
2013-03-11 03:54:00,61.7,58.0,30.04,ENE,60,4.0,6.0,86,0.00,,,0.00,weatherlink.com 1.10,2013-03-11 07:54:00,
2013-03-11 04:09:00,61.3,57.0,30.04,ENE,60,5.0,5.0,87,0.00,,,0.00,weatherlink.com 1.10,2013-03-11 08:09:00,
2013-03-11 04:24:00,61.1,57.0,30.04,ENE,60,5.0,8.0,87,0.00,,,0.00,weatherlink.com 1.10,2013-03-11 08:24:00,
2013-03-11 04:39:00,61.1,58.0,30.03,ENE,57,4.0,7.0,88,0.00,,,0.00,weatherlink.com 1.10,2013-03-11 08:39:00,
2013-03-11 04:54:00,60.9,57.0,30.03,NE,56,5.0,7.0,88,0.00,,,0.00,weatherlink.com 1.10,2013-03-11 08:54:00,
2013-03-11 05:09:00,60.7,57.0,30.02,NE,56,6.0,7.0,88,0.00,,,0.00,weatherlink.com 1.10,2013-03-11 09:09:00,
2013-03-11 05:24:00,60.5,57.0,30.02,NE,56,6.0,7.0,88,0.00,,,0.00,weatherlink.com 1.10,2013-03-11 09:24:00,
2013-03-11 05:39:00,60.3,57.0,30.01,ENE,60,6.0,8.0,89,0.00,,,0.00,weatherlink.com 1.10,2013-03-11 09:39:00,
2013-03-11 05:54:00,60.3,57.0,30.01,NE,56,6.0,8.0,89,0.00,,,0.00,weatherlink.com 1.10,2013-03-11 09:54:00,
2013-03-11 06:09:00,60.4,58.0,30.01,ENE,66,5.0,8.0,90,0.00,,,0.00,weatherlink.com 1.10,2013-03-11 10:09:00,
2013-03-11 06:24:00,60.4,58.0,30.01,ENE,74,4.0,7.0,90,0.00,,,0.00,weatherlink.com 1.10,2013-03-11 10:24:00,
2013-03-11 06:39:00,60.2,57.0,30.02,ENE,74,0.0,4.0,90,0.00,,,0.00,weatherlink.com 1.10,2013-03-11 10:39:00,
2013-03-11 06:54:00,59.9,57.0,30.03,ENE,74,2.0,3.0,90,0.00,,,0.00,weatherlink.com 1.10,2013-03-11 10:54:00,
2013-03-11 07:09:00,59.5,57.0,30.03,ENE,74,2.0,4.0,90,0.00,,,0.00,weatherlink.com 1.10,2013-03-11 11:09:00,
2013-03-11 07:24:00,59.1,56.0,30.03,ENE,74,3.0,4.0,90,0.00,,,0.00,weatherlink.com 1.10,2013-03-11 11:24:00,
2013-03-11 07:39:00,59.0,56.0,30.03,ENE,74,2.0,3.0,90,0.00,,,0.00,weatherlink.com 1.10,2013-03-11 11:39:00,
2013-03-11 07:54:00,59.1,57.0,30.03,ENE,74,1.0,4.0,91,0.00,,,0.00,weatherlink.com 1.10,2013-03-11 11:54:00,
2013-03-11 08:09:00,59.5,57.0,30.04,ENE,74,1.0,4.0,92,0.00,,,0.00,weatherlink.com 1.10,2013-03-11 12:09:00,
2013-03-11 08:24:00,60.5,58.0,30.04,ENE,74,0.0,4.0,92,0.00,,,0.00,weatherlink.com 1.10,2013-03-11 12:24:00,
2013-03-11 08:39:00,61.4,59.0,30.05,ENE,77,1.0,5.0,92,0.00,,,0.00,weatherlink.com 1.10,2013-03-11 12:39:00,
2013-03-11 08:54:00,62.1,60.0,30.05,ENE,71,6.0,7.0,92,0.00,,,0.00,weatherlink.com 1.10,2013-03-11 12:54:00,
2013-03-11 09:09:00,63.2,61.0,30.05,ESE,104,2.0,9.0,92,0.00,,,0.00,weatherlink.com 1.10,2013-03-11 13:09:00,
2013-03-11 09:24:00,64.4,62.0,30.05,East,101,1.0,11.0,90,0.00,,,0.00,weatherlink.com 1.10,2013-03-11 13:24:00,
2013-03-11 09:39:00,66.1,63.0,30.05,East,85,4.0,10.0,89,0.00,,,0.00,weatherlink.com 1.10,2013-03-11 13:39:00,
2013-03-11 09:54:00,67.5,63.0,30.05,ENE,66,8.0,12.0,86,0.00,,,0.00,weatherlink.com 1.10,2013-03-11 13:54:00,
2013-03-11 10:09:00,69.0,64.0,30.05,ESE,111,4.0,12.0,83,0.00,,,0.00,weatherlink.com 1.10,2013-03-11 14:09:00,
2013-03-11 10:24:00,70.4,64.0,30.05,East,97,10.0,19.0,79,0.00,,,0.00,weatherlink.com 1.10,2013-03-11 14:24:00,
2013-03-11 10:39:00,71.9,64.0,30.05,ESE,116,14.0,19.0,76,0.00,,,0.00,weatherlink.com 1.10,2013-03-11 14:39:00,
2013-03-11 10:54:00,73.0,64.0,30.04,ENE,68,8.0,21.0,74,0.00,,,0.00,weatherlink.com 1.10,2013-03-11 14:54:00,
2013-03-11 11:10:00,74.0,64.0,30.04,SSE,158,15.0,22.0,70,0.00,,,0.00,weatherlink.com 1.10,2013-03-11 15:10:00,
2013-03-11 11:25:00,74.7,63.0,30.03,ESE,104,11.0,21.0,68,0.00,,,0.00,weatherlink.com 1.10,2013-03-11 15:25:00,
2013-03-11 11:40:00,75.3,62.0,30.03,SE,137,15.0,20.0,64,0.00,,,0.00,weatherlink.com 1.10,2013-03-11 15:40:00,
2013-03-11 11:55:00,75.9,62.0,30.03,SE,141,17.0,22.0,63,0.00,,,0.00,weatherlink.com 1.10,2013-03-11 15:55:00,
2013-03-11 12:10:00,76.5,62.0,30.03,ESE,104,21.0,21.0,62,0.00,,,0.00,weatherlink.com 1.10,2013-03-11 16:10:00,
2013-03-11 12:25:00,77.3,63.0,30.03,SE,139,8.0,21.0,61,0.00,,,0.00,weatherlink.com 1.10,2013-03-11 16:25:00,
2013-03-11 12:40:00,78.5,62.0,30.03,SSE,153,15.0,22.0,57,0.00,,,0.00,weatherlink.com 1.10,2013-03-11 16:40:00,
2013-03-11 12:55:00,78.2,62.0,30.03,SSE,158,12.0,21.0,57,0.00,,,0.00,weatherlink.com 1.10,2013-03-11 16:55:00,
2013-03-11 13:10:00,78.3,61.0,30.03,East,96,11.0,25.0,56,0.00,,,0.00,weatherlink.com 1.10,2013-03-11 17:10:00,
2013-03-11 13:25:00,78.3,60.0,30.03,South,185,16.0,26.0,54,0.00,,,0.00,weatherlink.com 1.10,2013-03-11 17:25:00,
2013-03-11 13:40:00,77.9,61.0,30.03,SSE,151,17.0,24.0,56,0.00,,,0.00,weatherlink.com 1.10,2013-03-11 17:40:00,
2013-03-11 13:55:00,77.2,62.0,30.03,South,170,12.0,23.0,60,0.00,,,0.00,weatherlink.com 1.10,2013-03-11 17:55:00,
2013-03-11 14:10:00,77.5,62.0,30.03,SSW,196,12.0,22.0,60,0.00,,,0.00,weatherlink.com 1.10,2013-03-11 18:10:00,
2013-03-11 14:25:00,78.0,63.0,30.03,South,180,16.0,22.0,61,0.00,,,0.00,weatherlink.com 1.10,2013-03-11 18:25:00,
2013-03-11 14:40:00,77.8,64.0,30.02,SSW,192,13.0,21.0,62,0.00,,,0.00,weatherlink.com 1.10,2013-03-11 18:40:00,
2013-03-11 14:55:00,77.3,65.0,30.02,SW,216,15.0,24.0,65,0.00,,,0.00,weatherlink.com 1.10,2013-03-11 18:55:00,
2013-03-11 15:10:00,77.8,65.0,30.01,WSW,240,7.0,20.0,65,0.00,,,0.00,weatherlink.com 1.10,2013-03-11 19:10:00,
2013-03-11 15:40:00,76.9,64.0,30.01,SSW,197,14.0,22.0,65,0.00,,,0.00,weatherlink.com 1.10,2013-03-11 19:40:00,
2013-03-11 15:55:00,77.5,63.0,29.99,SSE,166,15.0,23.0,61,0.00,,,0.00,weatherlink.com 1.10,2013-03-11 19:55:00,
2013-03-11 16:10:00,77.2,62.0,29.98,SSE,168,14.0,24.0,60,0.00,,,0.00,weatherlink.com 1.10,2013-03-11 20:10:00,
2013-03-11 16:25:00,77.5,62.0,29.97,SSE,147,16.0,22.0,60,0.00,,,0.00,weatherlink.com 1.10,2013-03-11 20:25:00,
2013-03-11 16:40:00,78.2,62.0,29.96,SSE,149,14.0,21.0,57,0.00,,,0.00,weatherlink.com 1.10,2013-03-11 20:40:00,
2013-03-11 16:55:00,78.4,62.0,29.95,SSE,151,12.0,19.0,58,0.00,,,0.00,weatherlink.com 1.10,2013-03-11 20:55:00,
2013-03-11 17:10:00,77.9,61.0,29.95,South,185,18.0,23.0,57,0.00,,,0.00,weatherlink.com 1.10,2013-03-11 21:10:00,
2013-03-11 17:25:00,78.2,62.0,29.95,SSE,166,18.0,23.0,57,0.00,,,0.00,weatherlink.com 1.10,2013-03-11 21:25:00,
2013-03-11 17:40:00,77.9,62.0,29.94,SSE,160,16.0,21.0,58,0.00,,,0.00,weatherlink.com 1.10,2013-03-11 21:40:00,
2013-03-11 17:55:00,77.6,62.0,29.94,SSE,162,15.0,23.0,58,0.00,,,0.00,weatherlink.com 1.10,2013-03-11 21:55:00,
2013-03-11 18:10:00,77.2,63.0,29.95,SSE,147,12.0,22.0,62,0.00,,,0.00,weatherlink.com 1.10,2013-03-11 22:10:00,
2013-03-11 18:25:00,76.4,63.0,29.96,South,180,12.0,20.0,63,0.00,,,0.00,weatherlink.com 1.10,2013-03-11 22:25:00,
2013-03-11 18:40:00,75.8,63.0,29.96,SSE,166,11.0,14.0,65,0.00,,,0.00,weatherlink.com 1.10,2013-03-11 22:40:00,
2013-03-11 18:55:00,75.3,64.0,29.97,SSE,158,10.0,18.0,67,0.00,,,0.00,weatherlink.com 1.10,2013-03-11 22:55:00,
2013-03-11 19:10:00,74.7,64.0,29.98,South,171,4.0,12.0,69,0.00,,,0.00,weatherlink.com 1.10,2013-03-11 23:10:00,
2013-03-11 19:25:00,74.2,65.0,29.98,SSW,197,5.0,8.0,73,0.00,,,0.00,weatherlink.com 1.10,2013-03-11 23:25:00,
2013-03-11 19:40:00,73.1,65.0,29.98,South,189,6.0,9.0,75,0.00,,,0.00,weatherlink.com 1.10,2013-03-11 23:40:00,
2013-03-11 19:55:00,72.3,65.0,29.98,SSW,205,4.0,7.0,77,0.00,,,0.00,weatherlink.com 1.10,2013-03-11 23:55:00,
2013-03-11 20:10:00,71.7,65.0,29.98,SSW,205,2.0,5.0,79,0.00,,,0.00,weatherlink.com 1.10,2013-03-12 00:10:00,
2013-03-11 20:25:00,71.2,65.0,29.98,SSW,197,5.0,5.0,80,0.00,,,0.00,weatherlink.com 1.10,2013-03-12 00:25:00,
2013-03-11 20:40:00,71.0,64.0,29.97,South,175,6.0,10.0,79,0.00,,,0.00,weatherlink.com 1.10,2013-03-12 00:40:00,
2013-03-11 20:55:00,71.2,64.0,29.97,SSE,156,8.0,11.0,79,0.00,,,0.00,weatherlink.com 1.10,2013-03-12 00:55:00,
2013-03-11 21:10:00,71.3,65.0,29.97,SE,142,5.0,10.0,79,0.00,,,0.00,weatherlink.com 1.10,2013-03-12 01:10:00,
2013-03-11 21:25:00,71.2,65.0,29.97,SE,143,7.0,11.0,80,0.00,,,0.00,weatherlink.com 1.10,2013-03-12 01:25:00,
2013-03-11 21:40:00,71.1,65.0,29.98,SE,133,5.0,13.0,80,0.00,,,0.00,weatherlink.com 1.10,2013-03-12 01:40:00,
2013-03-11 21:55:00,70.9,65.0,29.98,SE,141,6.0,12.0,81,0.00,,,0.00,weatherlink.com 1.10,2013-03-12 01:55:00,
2013-03-11 22:10:00,70.7,65.0,29.98,SE,133,5.0,9.0,81,0.00,,,0.00,weatherlink.com 1.10,2013-03-12 02:10:00,
2013-03-11 22:25:00,70.6,65.0,29.98,SE,137,9.0,12.0,82,0.00,,,0.00,weatherlink.com 1.10,2013-03-12 02:25:00,
2013-03-11 22:40:00,70.5,65.0,29.98,ESE,118,3.0,13.0,82,0.00,,,0.00,weatherlink.com 1.10,2013-03-12 02:40:00,
2013-03-11 22:56:00,70.2,65.0,29.98,ESE,119,5.0,11.0,83,0.00,,,0.00,weatherlink.com 1.10,2013-03-12 02:56:00,
2013-03-11 23:10:00,69.9,65.0,29.98,ESE,118,7.0,11.0,84,0.00,,,0.00,weatherlink.com 1.10,2013-03-12 03:10:00,
2013-03-11 23:25:00,69.6,65.0,29.99,SE,130,8.0,11.0,84,0.00,,,0.00,weatherlink.com 1.10,2013-03-12 03:25:00,
2013-03-11 23:40:00,69.3,64.0,29.99,SE,125,7.0,10.0,84,0.00,,,0.00,weatherlink.com 1.10,2013-03-12 03:40:00,
2013-03-11 23:55:00,68.9,64.0,29.99,SE,125,4.0,8.0,85,0.00,,,0.00,weatherlink.com 1.10,2013-03-12 03:55:00,